Latest Coastal Weather Observations for Bedout Island

IDW60701

Issued at 9:22 am WST Wednesday 28 January 2015 (issued every 10 minutes, with the page automatically refreshed every 10 minutes)

About coastal observations | Map of coastal stations | Coastal observations for WA | Marine services | Other Formats
Station Details ID: 004100 Name: BEDOUT ISLAND Lat: -19.59 Lon: 119.10 Height: 8.6 m
Data from the previous 72 hours. | See also: Recent months for locations in Western Australia
Date/Time
WST
Temp

°C
Wind Pressure Rain
since 9am
mm
Weather Cloud Vis
km
Sea
Height
m
Swell
Dir
 
Speed
knots
Gust
knots
hPa Trend Height
m
Period
s
Dir
28/09:00am 30.9 W 9 11 1007.8 - - - - - - - - -
28/08:30am 30.4 W 8 11 1008.0 - - - - - - - - -
28/08:00am 29.9 W 9 10 1007.7 - - - - - - - - -
28/07:30am 29.0 W 11 13 1007.4 - - - - - - - - -
28/07:00am 28.2 W 11 13 1007.1 - - - - - - - - -
28/06:30am 27.3 W 12 14 1006.6 - - - - - - - - -
28/06:00am 27.0 W 13 15 1006.2 - - - - - - - - -
28/05:30am 27.0 W 13 15 1006.0 - - - - - - - - -
28/05:00am 27.0 WSW 13 15 1005.7 - - - - - - - - -
28/04:30am 27.1 W 14 17 1005.3 - - - - - - - - -
28/04:00am 27.0 W 17 20 1005.4 - - - - - - - - -
28/03:30am 27.1 W 16 19 1005.0 - - - - - - - - -
28/03:00am 26.9 W 17 19 1004.7 - - - - - - - - -
28/02:30am 27.1 W 18 22 1004.8 - - - - - - - - -
28/02:00am 27.0 W 18 21 1004.9 - - - - - - - - -
28/01:30am 26.9 W 17 20 1004.9 - - - - - - - - -
28/01:00am 26.9 WNW 17 19 1005.1 - - - - - - - - -
28/12:30am 27.0 WNW 17 21 1005.5 - - - - - - - - -
28/12:00am 27.0 WNW 17 20 1005.7 - - - - - - - - -
 
Date/Time
WST
Temp

°C
Wind Pressure Rain
since 9am
mm
Weather Cloud Vis
km
Sea
Height
m
Swell
Dir
 
Speed
knots
Gust
knots
hPa Trend Height
m
Period
s
Dir
27/11:30pm 26.8 WNW 16 19 1006.2 - - - - - - - - -
27/11:00pm 26.9 WNW 16 19 1006.4 - - - - - - - - -
27/10:30pm 27.1 WNW 15 19 1006.7 - - - - - - - - -
27/10:00pm 27.2 WNW 16 19 1006.7 - - - - - - - - -
27/09:30pm 27.3 WNW 14 17 1006.5 - - - - - - - - -
27/09:00pm 27.4 NW 14 16 1006.2 - - - - - - - - -
27/08:30pm 27.5 WNW 14 16 1006.2 - - - - - - - - -
27/08:00pm 27.6 WNW 14 17 1006.0 - - - - - - - - -
27/07:30pm 27.8 NW 13 15 1006.2 - - - - - - - - -
27/07:00pm 27.8 NW 13 15 1005.8 - - - - - - - - -
27/06:30pm 28.4 WNW 13 15 1005.6 - - - - - - - - -
27/06:00pm 28.9 WNW 13 16 1005.2 - - - - - - - - -
27/05:30pm 29.8 WNW 13 16 1005.0 - - - - - - - - -
27/05:00pm 29.8 WNW 14 17 1004.8 - - - - - - - - -
27/04:30pm 31.2 WNW 12 15 1004.5 - - - - - - - - -
27/04:00pm 32.0 WNW 12 14 1004.5 - - - - - - - - -
27/03:30pm 31.7 WNW 11 13 1004.6 - - - - - - - - -
27/03:00pm 32.2 WNW 11 13 1004.9 - - - - - - - - -
27/02:30pm 32.6 W 10 13 1005.3 - - - - - - - - -
27/02:00pm 32.9 W 12 14 1005.5 - - - - - - - - -
27/01:30pm 32.4 W 10 12 1005.7 - - - - - - - - -
27/01:00pm 32.6 W 10 12 1006.1 - - - - - - - - -
27/12:30pm 32.2 W 9 11 1006.4 - - - - - - - - -
27/12:00pm 32.7 W 8 10 1006.7 - - - - - - - - -
27/11:30am 32.8 WNW 9 11 1007.3 - - - - - - - - -
27/11:00am 32.0 W 9 11 1007.5 - - - - - - - - -
27/10:30am 32.0 W 8 9 1007.9 - - - - - - - - -
27/10:00am 31.6 W 9 11 1008.2 - - - - - - - - -
27/09:30am 31.3 W 9 11 1008.4 - - - - - - - - -
27/09:00am 31.2 W 8 9 1008.3 - - - - - - - - -
27/08:30am 31.0 W 10 12 1008.2 - - - - - - - - -
27/08:00am 30.4 W 12 14 1008.2 - - - - - - - - -
27/07:30am 29.4 W 13 15 1008.1 - - - - - - - - -
27/07:00am 28.9 W 13 16 1007.5 - - - - - - - - -
27/06:30am 28.3 WNW 15 18 1007.4 - - - - - - - - -
27/06:00am 27.9 W 12 14 1007.0 - - - - - - - - -
27/05:30am 27.9 WNW 14 16 1006.9 - - - - - - - - -
27/05:00am 27.9 WNW 15 17 1006.6 - - - - - - - - -
27/04:30am 28.1 W 15 17 1006.8 - - - - - - - - -
27/04:00am 28.1 WNW 15 17 1006.8 - - - - - - - - -
27/03:30am 28.1 WNW 15 18 1006.6 - - - - - - - - -
27/03:00am 28.0 WNW 17 20 1006.4 - - - - - - - - -
27/02:30am 28.2 WNW 15 19 1006.4 - - - - - - - - -
27/02:00am 28.2 WNW 17 19 1006.2 - - - - - - - - -
27/01:30am 28.2 WNW 16 19 1006.5 - - - - - - - - -
27/01:00am 28.2 NW 15 17 1006.5 - - - - - - - - -
27/12:30am 28.2 NW 15 19 1006.8 - - - - - - - - -
27/12:00am 28.2 NW 15 17 1006.9 - - - - - - - - -
 
Date/Time
WST
Temp

°C
Wind Pressure Rain
since 9am
mm
Weather Cloud Vis
km
Sea
Height
m
Swell
Dir
 
Speed
knots
Gust
knots
hPa Trend Height
m
Period
s
Dir
26/11:30pm 28.1 NW 14 16 1007.1 - - - - - - - - -
26/11:00pm 27.9 WNW 14 17 1007.2 - - - - - - - - -
26/10:30pm 27.8 WNW 13 16 1007.2 - - - - - - - - -
26/10:00pm 27.9 WNW 14 18 1007.0 - - - - - - - - -
26/09:30pm 28.1 WNW 16 18 1006.7 - - - - - - - - -
26/09:00pm 28.0 WNW 15 17 1006.4 - - - - - - - - -
26/08:30pm 28.2 WNW 14 17 1006.2 - - - - - - - - -
26/08:00pm 28.3 WNW 15 17 1005.8 - - - - - - - - -
26/07:30pm 28.4 NW 15 19 1005.6 - - - - - - - - -
26/07:00pm 28.6 NW 15 18 1005.6 - - - - - - - - -
26/06:30pm 28.9 NW 14 17 1005.4 - - - - - - - - -
26/06:00pm 29.6 NW 13 15 1005.3 - - - - - - - - -
26/05:30pm 30.5 NW 13 15 1005.2 - - - - - - - - -
26/05:00pm 31.0 NW 13 16 1005.2 - - - - - - - - -
26/04:30pm 31.5 NW 13 15 1005.2 - - - - - - - - -
26/04:00pm 32.0 NW 14 16 1005.5 - - - - - - - - -
26/03:30pm 32.1 NW 12 14 1005.5 - - - - - - - - -
26/03:00pm 33.3 NW 12 15 1005.6 - - - - - - - - -
26/02:30pm 32.9 NW 12 15 1005.9 - - - - - - - - -
26/02:00pm 33.7 NNW 10 13 1006.1 - - - - - - - - -
26/01:30pm 32.6 NNW 10 13 1006.4 - - - - - - - - -
26/01:00pm 32.6 NNW 11 13 1006.9 - - - - - - - - -
26/12:30pm 32.9 N 11 13 1006.9 - - - - - - - - -
26/12:00pm 33.5 N 11 13 1006.9 - - - - - - - - -
26/11:30am 33.6 N 11 13 1007.4 - - - - - - - - -
26/11:00am 33.4 N 11 13 1007.9 - - - - - - - - -
26/10:30am 32.8 N 12 14 1008.0 - - - - - - - - -
26/10:00am 32.3 N 14 16 1008.3 - - - - - - - - -
26/09:30am 32.6 N 11 13 1008.4 - - - - - - - - -
26/09:00am 32.2 N 10 12 1008.5 - - - - - - - - -
26/08:30am 31.7 NNE 9 10 1008.4 - - - - - - - - -
26/08:00am 30.3 NNE 6 7 1008.5 - - - - - - - - -
26/07:30am 29.5 NNE 6 7 1008.6 - - - - - - - - -
26/07:00am 29.1 WNW 4 5 1008.5 - - - - - - - - -
26/06:30am 28.3 WNW 3 4 1008.5 - - - - - - - - -
26/06:00am 28.3 WNW 4 5 1008.0 - - - - - - - - -
26/05:30am 28.3 WNW 5 6 1007.9 - - - - - - - - -
26/05:00am 28.2 NW 6 8 1007.3 - - - - - - - - -
26/04:30am 28.2 NNW 7 10 1007.0 - - - - - - - - -
26/04:00am 28.2 NNW 8 10 1006.4 - - - - - - - - -
26/03:30am 28.1 NNW 9 12 1006.3 - - - - - - - - -
26/03:00am 27.9 NW 11 13 1005.8 - - - - - - - - -
26/02:30am 27.9 NNW 9 10 1005.7 - - - - - - - - -
26/02:00am 27.8 NW 10 12 1005.7 - - - - - - - - -
26/01:30am 27.9 NW 10 11 1005.8 - - - - - - - - -
26/01:00am 27.9 WNW 8 10 1005.8 - - - - - - - - -
26/12:30am 28.0 WNW 10 11 1005.9 - - - - - - - - -
26/12:00am 28.1 NW 12 13 1005.8 - - - - - - - - -
 
Date/Time
WST
Temp

°C
Wind Pressure Rain
since 9am
mm
Weather Cloud Vis
km
Sea
Height
m
Swell
Dir
 
Speed
knots
Gust
knots
hPa Trend Height
m
Period
s
Dir
25/11:30pm 28.2 WNW 11 13 1006.3 - - - - - - - - -
25/11:00pm 28.3 W 13 16 1006.6 - - - - - - - - -
25/10:30pm 28.3 W 15 17 1006.8 - - - - - - - - -
25/10:00pm 28.4 W 17 20 1007.2 - - - - - - - - -
25/09:30pm 28.5 W 15 16 1007.3 - - - - - - - - -
25/09:00pm 28.5 W 15 18 1007.0 - - - - - - - - -
25/08:30pm 28.6 W 16 17 1007.1 - - - - - - - - -
25/08:00pm 28.8 WNW 16 18 1007.0 - - - - - - - - -
25/07:30pm 28.7 WNW 15 17 1006.8 - - - - - - - - -
25/07:00pm 29.0 NW 13 15 1007.0 - - - - - - - - -
25/06:30pm 29.2 NW 12 15 1006.9 - - - - - - - - -
25/06:00pm 29.8 NNW 11 14 1006.4 - - - - - - - - -
25/05:30pm 30.6 NNW 13 17 1006.2 - - - - - - - - -
25/05:00pm 31.1 N 13 16 1005.8 - - - - - - - - -
25/04:30pm 31.5 N 12 15 1005.9 - - - - - - - - -
25/04:00pm 31.9 N 12 14 1006.3 - - - - - - - - -
25/03:30pm 32.5 N 11 13 1006.7 - - - - - - - - -
25/03:00pm 31.5 N 11 13 1006.8 - - - - - - - - -
25/02:30pm 32.5 NNE 8 9 1007.5 - - - - - - - - -
25/02:00pm 33.2 N 9 11 1007.3 - - - - - - - - -
25/01:30pm 30.6 NW 8 9 1007.2 - - - - - - - - -
25/01:00pm 30.2 N 9 10 1007.2 - - - - - - - - -
25/12:30pm 30.3 N 9 13 1007.4 - - - - - - - - -
25/12:00pm 30.4 N 11 13 1007.8 - - - - - - - - -
25/11:30am 30.2 NNE 13 16 1008.2 - - - - - - - - -
25/11:00am 30.4 NNE 15 18 1008.5 - - - - - - - - -
25/10:30am 31.0 NE 19 21 1009.1 - - - - - - - - -
25/10:00am 31.8 NE 20 23 1009.2 - - - - - - - - -
25/09:30am 31.4 NE 19 23 1009.4 - - - - - - - - -

Other Formats:

Comma delimited format used in spreadsheet applications
http://www.bom.gov.au/fwo/IDW60701/IDW60701.94310.axf

JavaScript Object Notation format (JSON) in row-major order
http://www.bom.gov.au/fwo/IDW60701/IDW60701.94310.json